Time;durP1;ratioP1;P1;durP2;ratioP2;P2;SDS_P1;SDS_P2;PMS_P1;PMS_P2;Temp;Humidity;BMP_temperature;BMP_pressure;BME280_temperature;BME280_humidity;BME280_pressure;Samples;Min_cycle;Max_cycle;Signal;HPM_P1;HPM_P2
2023/08/23 00:00:05;;;;;;;14.05;7.75;;;;;;;;;;5012262;28;20026;-76
2023/08/23 00:02:30;;;;;;;14.73;7.97;;;;;;;;;;4995619;28;20025;-76
2023/08/23 00:04:55;;;;;;;12.00;7.95;;;;;;;;;;4995183;28;20037;-76
2023/08/23 00:07:20;;;;;;;16.92;8.57;;;;;;;;;;4995315;28;20032;-77
2023/08/23 00:09:46;;;;;;;17.50;8.05;;;;;;;;;;5012514;28;20025;-76
2023/08/23 00:12:11;;;;;;;11.00;6.40;;;;;;;;;;4995165;28;20037;-76
2023/08/23 00:14:37;;;;;;;16.95;8.32;;;;;;;;;;4998573;28;20020;-76
2023/08/23 00:17:02;;;;;;;21.50;10.63;;;;;;;;;;4999522;28;20026;-76
2023/08/23 00:19:28;;;;;;;22.35;10.07;;;;;;;;;;4999012;28;20117;-76
2023/08/23 00:21:53;;;;;;;18.30;8.55;;;;;;;;;;4998067;28;20030;-76
2023/08/23 00:24:19;;;;;;;18.10;9.15;;;;;;;;;;4998967;28;20559;-76
2023/08/23 00:26:45;;;;;;;18.70;10.15;;;;;;;;;;5012446;28;20124;-75
2023/08/23 00:29:10;;;;;;;12.52;7.43;;;;;;;;;;5036507;28;20057;-76
2023/08/23 00:31:35;;;;;;;11.55;5.85;;;;;;;;;;5024221;28;20030;-76
2023/08/23 00:34:01;;;;;;;12.90;7.55;;;;;;;;;;5034867;28;20028;-76
2023/08/23 00:36:26;;;;;;;12.70;6.47;;;;;;;;;;5012476;28;20028;-76
2023/08/23 00:38:51;;;;;;;15.18;7.05;;;;;;;;;;5001573;28;20546;-76
2023/08/23 00:41:16;;;;;;;19.27;10.15;;;;;;;;;;5018804;28;20091;-76
2023/08/23 00:43:42;;;;;;;15.70;8.05;;;;;;;;;;5033305;28;20053;-76
2023/08/23 00:46:07;;;;;;;14.93;8.25;;;;;;;;;;4999874;28;20025;-76
2023/08/23 00:48:33;;;;;;;15.93;9.25;;;;;;;;;;4999830;28;20464;-76
2023/08/23 00:50:58;;;;;;;14.35;6.47;;;;;;;;;;4999207;28;20487;-77
2023/08/23 00:53:24;;;;;;;17.52;9.10;;;;;;;;;;4981196;28;20507;-76
2023/08/23 00:55:49;;;;;;;13.48;6.57;;;;;;;;;;4978670;28;20077;-76
2023/08/23 00:58:14;;;;;;;12.35;7.97;;;;;;;;;;5014057;28;20476;-76
2023/08/23 01:00:40;;;;;;;19.40;9.38;;;;;;;;;;4983349;28;20033;-76
2023/08/23 01:03:06;;;;;;;9.50;5.72;;;;;;;;;;5034101;28;20080;-76
2023/08/23 01:05:51;;;;;;;15.30;8.00;;;;;;;;;;5017538;28;20479;-76
2023/08/23 01:08:32;;;;;;;10.30;6.05;;;;;;;;;;4993512;28;20038;-76
2023/08/23 01:11:08;;;;;;;15.15;7.30;;;;;;;;;;4977892;28;20026;-77
2023/08/23 01:13:49;;;;;;;15.55;7.32;;;;;;;;;;4984024;28;20116;-76
2023/08/23 01:16:17;;;;;;;13.00;6.53;;;;;;;;;;5017501;28;20053;-76
2023/08/23 01:18:42;;;;;;;13.05;6.45;;;;;;;;;;5017640;28;20498;-76
2023/08/23 01:21:09;;;;;;;11.13;5.97;;;;;;;;;;5018240;28;20033;-76
2023/08/23 01:23:35;;;;;;;8.70;5.18;;;;;;;;;;4981704;28;20108;-76
2023/08/23 01:26:00;;;;;;;14.05;6.90;;;;;;;;;;4997250;28;20121;-76
2023/08/23 01:28:26;;;;;;;7.53;4.90;;;;;;;;;;4998059;28;20044;-76
2023/08/23 01:30:51;;;;;;;12.00;6.22;;;;;;;;;;4997789;28;20033;-76
2023/08/23 01:33:22;;;;;;;8.38;5.35;;;;;;;;;;4981946;28;20026;-76
2023/08/23 01:35:53;;;;;;;8.55;5.25;;;;;;;;;;5015254;28;20113;-76
2023/08/23 01:38:21;;;;;;;13.48;7.20;;;;;;;;;;5015162;28;20125;-76
2023/08/23 01:40:46;;;;;;;22.67;10.77;;;;;;;;;;4998075;28;20025;-76
2023/08/23 01:43:11;;;;;;;13.20;7.20;;;;;;;;;;4997443;28;20025;-76
2023/08/23 01:45:37;;;;;;;10.98;6.90;;;;;;;;;;4982240;28;20033;-76
2023/08/23 01:48:02;;;;;;;15.25;8.55;;;;;;;;;;5015236;28;20468;-76
2023/08/23 01:50:27;;;;;;;12.50;8.23;;;;;;;;;;5015057;28;20051;-76
2023/08/23 01:52:53;;;;;;;16.67;9.15;;;;;;;;;;4997113;28;20141;-77
2023/08/23 01:55:20;;;;;;;11.25;6.53;;;;;;;;;;5015091;28;20022;-76
2023/08/23 01:57:45;;;;;;;13.57;8.68;;;;;;;;;;5014902;28;20032;-76
2023/08/23 02:00:11;;;;;;;14.77;7.78;;;;;;;;;;4981510;28;20022;-76
2023/08/23 02:02:36;;;;;;;16.67;7.22;;;;;;;;;;4981100;28;20028;-76
2023/08/23 02:05:02;;;;;;;16.83;8.60;;;;;;;;;;5014454;28;20022;-76
2023/08/23 02:07:27;;;;;;;18.85;9.43;;;;;;;;;;4997195;28;20535;-75
2023/08/23 02:09:52;;;;;;;12.88;6.95;;;;;;;;;;5014852;28;20030;-76
2023/08/23 02:12:17;;;;;;;12.63;6.93;;;;;;;;;;4996743;28;20060;-76
2023/08/23 02:14:43;;;;;;;15.95;8.43;;;;;;;;;;4997346;28;20021;-76
2023/08/23 02:17:08;;;;;;;19.10;9.38;;;;;;;;;;4997073;28;20026;-76
2023/08/23 02:19:33;;;;;;;16.25;8.73;;;;;;;;;;4997025;28;20531;-76
2023/08/23 02:21:59;;;;;;;12.02;7.70;;;;;;;;;;4996436;28;20040;-76
2023/08/23 02:24:24;;;;;;;13.98;7.10;;;;;;;;;;5014434;28;20025;-76
2023/08/23 02:26:49;;;;;;;15.40;7.65;;;;;;;;;;4996785;28;20033;-76
2023/08/23 02:29:15;;;;;;;19.02;7.45;;;;;;;;;;5014389;28;20415;-76
2023/08/23 02:31:40;;;;;;;18.42;8.90;;;;;;;;;;4996786;28;20073;-76
2023/08/23 02:34:08;;;;;;;20.08;9.77;;;;;;;;;;4996938;28;20021;-76
2023/08/23 02:36:33;;;;;;;16.92;7.78;;;;;;;;;;4996230;28;20030;-76
2023/08/23 02:38:59;;;;;;;16.88;7.80;;;;;;;;;;4995879;28;20030;-76
2023/08/23 02:41:24;;;;;;;19.50;9.00;;;;;;;;;;4996823;28;20018;-76
2023/08/23 02:43:49;;;;;;;14.82;8.60;;;;;;;;;;5014030;28;20033;-76
2023/08/23 02:46:15;;;;;;;15.60;8.68;;;;;;;;;;4979820;28;20022;-76
2023/08/23 02:48:40;;;;;;;14.95;7.72;;;;;;;;;;4996481;28;20026;-76
2023/08/23 02:51:06;;;;;;;15.52;8.50;;;;;;;;;;4980317;28;20025;-76
2023/08/23 02:53:32;;;;;;;13.88;7.88;;;;;;;;;;5013958;28;20029;-76
2023/08/23 02:55:57;;;;;;;12.10;7.18;;;;;;;;;;4996032;28;20029;-76
2023/08/23 02:58:22;;;;;;;9.52;6.43;;;;;;;;;;4995398;28;20030;-76
2023/08/23 03:00:47;;;;;;;14.18;8.52;;;;;;;;;;4996013;28;20037;-76
2023/08/23 03:03:13;;;;;;;9.95;6.45;;;;;;;;;;4996314;28;20056;-76
2023/08/23 03:05:38;;;;;;;13.63;7.18;;;;;;;;;;4996079;28;20160;-76
2023/08/23 03:08:03;;;;;;;11.75;6.15;;;;;;;;;;5013852;28;20026;-76
2023/08/23 03:10:29;;;;;;;12.45;6.78;;;;;;;;;;4995457;28;20065;-76
2023/08/23 03:12:54;;;;;;;15.60;7.18;;;;;;;;;;5019652;28;20021;-76
2023/08/23 03:15:19;;;;;;;10.48;7.03;;;;;;;;;;5015675;28;20033;-76
2023/08/23 03:17:45;;;;;;;17.23;7.72;;;;;;;;;;5014815;28;20025;-76
2023/08/23 03:20:10;;;;;;;12.40;6.88;;;;;;;;;;5033419;28;20031;-76
2023/08/23 03:22:35;;;;;;;10.30;6.30;;;;;;;;;;5033564;28;20056;-76
2023/08/23 03:25:01;;;;;;;17.00;6.80;;;;;;;;;;5033479;28;20105;-76
2023/08/23 03:27:26;;;;;;;10.20;5.75;;;;;;;;;;5015654;28;20391;-76
2023/08/23 03:29:52;;;;;;;7.60;4.28;;;;;;;;;;5020633;28;20037;-76
2023/08/23 03:32:19;;;;;;;8.20;4.40;;;;;;;;;;4995914;28;20026;-76
2023/08/23 03:34:44;;;;;;;8.20;5.15;;;;;;;;;;4996389;28;20100;-76
2023/08/23 03:37:09;;;;;;;10.38;5.13;;;;;;;;;;5013354;28;20061;-76
2023/08/23 03:39:35;;;;;;;9.52;4.47;;;;;;;;;;4994469;28;20040;-76
2023/08/23 03:42:00;;;;;;;9.70;5.57;;;;;;;;;;5015651;28;20083;-76
2023/08/23 03:44:25;;;;;;;11.55;5.90;;;;;;;;;;5015241;28;20079;-76
2023/08/23 03:46:51;;;;;;;7.43;5.05;;;;;;;;;;5018607;28;20080;-76
2023/08/23 03:49:16;;;;;;;5.45;3.72;;;;;;;;;;4996678;28;20021;-76
2023/08/23 03:51:41;;;;;;;6.93;3.78;;;;;;;;;;4999633;28;20083;-76
2023/08/23 03:54:06;;;;;;;5.00;3.45;;;;;;;;;;5016877;28;20030;-77
2023/08/23 03:56:32;;;;;;;7.82;3.47;;;;;;;;;;4998926;28;20440;-76
2023/08/23 03:58:58;;;;;;;8.10;3.78;;;;;;;;;;5017136;28;20079;-76
2023/08/23 04:01:24;;;;;;;5.32;3.80;;;;;;;;;;5000046;28;20018;-76
2023/08/23 04:03:49;;;;;;;5.10;3.60;;;;;;;;;;5017114;28;20117;-76
2023/08/23 04:06:14;;;;;;;4.70;3.22;;;;;;;;;;5000540;28;20029;-76
2023/08/23 04:08:40;;;;;;;4.80;3.05;;;;;;;;;;5036888;28;20053;-76
2023/08/23 04:11:05;;;;;;;6.18;3.47;;;;;;;;;;5036026;28;20021;-76
2023/08/23 04:13:30;;;;;;;6.63;3.58;;;;;;;;;;5037252;28;20470;-76
2023/08/23 04:15:56;;;;;;;6.85;3.95;;;;;;;;;;5036713;28;20052;-76
2023/08/23 04:18:23;;;;;;;6.45;3.60;;;;;;;;;;5018680;28;20029;-75
2023/08/23 04:21:00;;;;;;;8.70;3.83;;;;;;;;;;5021178;28;20091;-76
2023/08/23 04:23:26;;;;;;;6.97;4.13;;;;;;;;;;4982201;28;20511;-76
2023/08/23 04:25:51;;;;;;;7.43;3.63;;;;;;;;;;4998400;28;20034;-76
2023/08/23 04:28:18;;;;;;;6.82;3.97;;;;;;;;;;5016375;28;20021;-76
2023/08/23 04:30:44;;;;;;;5.30;3.45;;;;;;;;;;4999107;28;20430;-76
2023/08/23 04:33:10;;;;;;;6.63;4.05;;;;;;;;;;5015471;28;20026;-76
2023/08/23 04:35:35;;;;;;;9.95;4.38;;;;;;;;;;4998563;28;20093;-76
2023/08/23 04:38:01;;;;;;;8.55;4.32;;;;;;;;;;4999172;28;20037;-76
2023/08/23 04:40:26;;;;;;;5.15;3.33;;;;;;;;;;4999288;28;20460;-76
2023/08/23 04:42:51;;;;;;;5.47;3.70;;;;;;;;;;5003454;28;20072;-77
2023/08/23 04:45:19;;;;;;;6.20;3.95;;;;;;;;;;5018990;28;20475;-76
2023/08/23 04:47:45;;;;;;;6.80;3.63;;;;;;;;;;5018520;28;20356;-75
2023/08/23 04:50:10;;;;;;;6.00;3.80;;;;;;;;;;5036235;28;20056;-76
2023/08/23 04:52:35;;;;;;;10.70;6.10;;;;;;;;;;5017095;28;20545;-76
2023/08/23 04:55:01;;;;;;;7.85;5.85;;;;;;;;;;5017975;28;20495;-75
2023/08/23 04:57:26;;;;;;;7.53;4.90;;;;;;;;;;5029346;28;20476;-76
2023/08/23 05:00:00;;;;;;;8.10;4.72;;;;;;;;;;5022558;28;20029;-76
2023/08/23 05:02:26;;;;;;;6.82;5.03;;;;;;;;;;5003376;28;20049;-76
2023/08/23 05:04:51;;;;;;;8.45;4.25;;;;;;;;;;4992856;28;20404;-75
2023/08/23 05:07:16;;;;;;;7.07;3.97;;;;;;;;;;5017094;28;20025;-76
2023/08/23 05:09:41;;;;;;;4.88;3.25;;;;;;;;;;5017906;28;20080;-75
2023/08/23 05:12:07;;;;;;;6.93;3.53;;;;;;;;;;5017404;28;20025;-76
2023/08/23 05:14:34;;;;;;;6.40;4.50;;;;;;;;;;5035372;28;20104;-75
2023/08/23 05:17:00;;;;;;;5.57;4.07;;;;;;;;;;5035096;28;20029;-76
2023/08/23 05:19:25;;;;;;;7.97;4.28;;;;;;;;;;5034731;28;20024;-75
2023/08/23 05:21:50;;;;;;;8.70;5.10;;;;;;;;;;5035365;28;20017;-75
2023/08/23 05:24:16;;;;;;;10.05;4.97;;;;;;;;;;5017470;28;20037;-75
2023/08/23 05:26:41;;;;;;;10.40;5.28;;;;;;;;;;5017261;28;20108;-75
2023/08/23 05:29:06;;;;;;;10.20;6.80;;;;;;;;;;5034565;28;20491;-76
2023/08/23 05:31:32;;;;;;;11.38;4.82;;;;;;;;;;5035057;28;20456;-76
2023/08/23 05:33:57;;;;;;;12.75;6.03;;;;;;;;;;5017224;28;20027;-76
2023/08/23 05:36:22;;;;;;;12.77;5.60;;;;;;;;;;5016995;28;20030;-75
2023/08/23 05:38:49;;;;;;;16.27;7.78;;;;;;;;;;5034000;28;20029;-76
2023/08/23 05:41:15;;;;;;;7.38;5.25;;;;;;;;;;5017321;28;20033;-75
2023/08/23 05:43:40;;;;;;;6.82;4.63;;;;;;;;;;5016802;28;20025;-75
2023/08/23 05:46:05;;;;;;;6.28;3.72;;;;;;;;;;5016849;28;20462;-75
2023/08/23 05:48:34;;;;;;;7.13;4.55;;;;;;;;;;5034050;28;20066;-76
2023/08/23 05:51:00;;;;;;;14.77;6.35;;;;;;;;;;5034491;28;20394;-75
2023/08/23 05:53:25;;;;;;;9.75;5.65;;;;;;;;;;5034584;28;20018;-76
2023/08/23 05:55:51;;;;;;;11.48;6.40;;;;;;;;;;5016476;28;20518;-76
2023/08/23 05:58:18;;;;;;;13.73;7.00;;;;;;;;;;5016554;28;20165;-76
2023/08/23 06:00:44;;;;;;;10.00;6.30;;;;;;;;;;5016897;28;20026;-76
2023/08/23 06:03:10;;;;;;;13.52;6.88;;;;;;;;;;5017214;28;20113;-76
2023/08/23 06:05:35;;;;;;;13.68;6.88;;;;;;;;;;5016464;28;20100;-76
2023/08/23 06:08:03;;;;;;;11.77;5.93;;;;;;;;;;5016158;28;20047;-77
2023/08/23 06:10:28;;;;;;;17.17;6.60;;;;;;;;;;5016675;28;20022;-76
2023/08/23 06:12:53;;;;;;;15.07;6.50;;;;;;;;;;5016549;28;20025;-75
2023/08/23 06:15:19;;;;;;;10.82;6.18;;;;;;;;;;5016442;28;20483;-75
2023/08/23 06:17:44;;;;;;;18.05;9.88;;;;;;;;;;5016544;28;20145;-76
2023/08/23 06:20:09;;;;;;;7.90;5.72;;;;;;;;;;5016601;28;20079;-75
2023/08/23 06:22:34;;;;;;;13.98;5.70;;;;;;;;;;5033648;28;20473;-76
2023/08/23 06:25:00;;;;;;;18.35;7.43;;;;;;;;;;5016206;28;20036;-75
2023/08/23 06:27:25;;;;;;;9.35;5.85;;;;;;;;;;5033919;28;20101;-76
2023/08/23 06:29:50;;;;;;;10.75;6.75;;;;;;;;;;5034048;28;20032;-76
2023/08/23 06:32:16;;;;;;;11.52;6.40;;;;;;;;;;5034378;28;20021;-77
2023/08/23 06:34:41;;;;;;;13.55;8.27;;;;;;;;;;5016279;28;20022;-75
2023/08/23 06:37:07;;;;;;;17.00;5.00;;;;;;;;;;5016199;28;20497;-77
2023/08/23 06:39:32;;;;;;;14.25;6.72;;;;;;;;;;5025641;28;20579;-76
2023/08/23 06:41:58;;;;;;;7.60;5.35;;;;;;;;;;4996598;28;20097;-76
2023/08/23 06:44:23;;;;;;;7.80;4.18;;;;;;;;;;4996613;28;20025;-76
2023/08/23 06:46:48;;;;;;;9.18;4.55;;;;;;;;;;5013613;28;20022;-76
2023/08/23 06:49:14;;;;;;;7.88;4.32;;;;;;;;;;4996626;28;20456;-76
2023/08/23 06:51:39;;;;;;;11.13;4.78;;;;;;;;;;5013425;28;20026;-76
2023/08/23 06:54:04;;;;;;;8.38;3.72;;;;;;;;;;4980146;28;20022;-76
2023/08/23 06:56:29;;;;;;;7.28;3.20;;;;;;;;;;4996418;28;20403;-76
2023/08/23 06:58:55;;;;;;;8.23;4.32;;;;;;;;;;4996084;28;20026;-76
2023/08/23 07:01:21;;;;;;;6.78;3.78;;;;;;;;;;4995878;28;20033;-76
2023/08/23 07:03:46;;;;;;;7.68;3.30;;;;;;;;;;4995721;28;20018;-76
2023/08/23 07:06:13;;;;;;;4.43;2.92;;;;;;;;;;5013157;28;20088;-76
2023/08/23 07:08:40;;;;;;;10.30;3.50;;;;;;;;;;4995954;28;20080;-76
2023/08/23 07:11:05;;;;;;;5.55;2.88;;;;;;;;;;5012945;28;20114;-76
2023/08/23 07:13:30;;;;;;;6.32;3.13;;;;;;;;;;5013461;28;20049;-76
2023/08/23 07:15:55;;;;;;;7.95;3.10;;;;;;;;;;5013163;28;20030;-76
2023/08/23 07:18:21;;;;;;;5.55;3.63;;;;;;;;;;4983777;28;20504;-76
2023/08/23 07:20:46;;;;;;;4.45;3.08;;;;;;;;;;5015378;28;20029;-76
2023/08/23 07:23:11;;;;;;;4.80;3.67;;;;;;;;;;5032182;28;20017;-76
2023/08/23 07:25:37;;;;;;;8.05;2.90;;;;;;;;;;5021493;28;20036;-76
2023/08/23 07:28:05;;;;;;;6.85;3.03;;;;;;;;;;5021496;28;20456;-76
2023/08/23 07:30:30;;;;;;;6.30;2.78;;;;;;;;;;5039808;28;20029;-76
2023/08/23 07:32:56;;;;;;;6.55;3.17;;;;;;;;;;5038908;28;20017;-77
2023/08/23 07:35:21;;;;;;;5.28;2.50;;;;;;;;;;5014419;28;20373;-76
2023/08/23 07:37:47;;;;;;;4.40;2.60;;;;;;;;;;5001281;28;20113;-77
2023/08/23 07:40:12;;;;;;;4.95;3.15;;;;;;;;;;5019299;28;20499;-77
2023/08/23 07:42:37;;;;;;;6.90;3.15;;;;;;;;;;4986124;28;20034;-76
2023/08/23 07:45:03;;;;;;;6.55;3.20;;;;;;;;;;5009391;28;20045;-76
2023/08/23 07:47:28;;;;;;;4.32;2.13;;;;;;;;;;5019132;28;20479;-77
2023/08/23 07:49:54;;;;;;;3.03;2.60;;;;;;;;;;5001838;28;20025;-77
2023/08/23 07:52:19;;;;;;;5.88;2.80;;;;;;;;;;5020238;28;20036;-76
2023/08/23 07:54:44;;;;;;;5.47;2.75;;;;;;;;;;5002058;28;20480;-76
2023/08/23 07:57:11;;;;;;;9.82;2.70;;;;;;;;;;5027797;28;20430;-76
2023/08/23 07:59:40;;;;;;;7.65;3.17;;;;;;;;;;5006207;28;20133;-76
2023/08/23 08:02:06;;;;;;;6.63;3.33;;;;;;;;;;5000129;28;20030;-76
2023/08/23 08:04:32;;;;;;;13.60;5.53;;;;;;;;;;4988458;28;20540;-76
2023/08/23 08:06:57;;;;;;;7.38;2.70;;;;;;;;;;5019149;28;20377;-76
2023/08/23 08:09:23;;;;;;;5.90;3.45;;;;;;;;;;5002275;28;20037;-76
2023/08/23 08:11:48;;;;;;;3.95;2.90;;;;;;;;;;5002232;28;20025;-76
2023/08/23 08:14:13;;;;;;;7.13;3.55;;;;;;;;;;5002427;28;20025;-76
2023/08/23 08:16:39;;;;;;;5.10;3.08;;;;;;;;;;5019686;28;20040;-76
2023/08/23 08:19:04;;;;;;;13.82;6.28;;;;;;;;;;5030366;28;20026;-76
2023/08/23 08:21:30;;;;;;;6.35;3.05;;;;;;;;;;5021384;28;20029;-75
2023/08/23 08:23:55;;;;;;;4.95;2.70;;;;;;;;;;5032372;28;20534;-76
2023/08/23 08:26:20;;;;;;;6.80;2.90;;;;;;;;;;5020934;28;20484;-76
2023/08/23 08:28:46;;;;;;;5.78;3.40;;;;;;;;;;5020277;28;20160;-76
2023/08/23 08:31:11;;;;;;;7.03;3.17;;;;;;;;;;5021159;28;20030;-76
2023/08/23 08:33:41;;;;;;;6.25;3.10;;;;;;;;;;5002164;28;20123;-76
2023/08/23 08:36:07;;;;;;;6.95;3.08;;;;;;;;;;5017054;28;20431;-76
2023/08/23 08:38:32;;;;;;;8.50;3.58;;;;;;;;;;5017102;28;20109;-76
2023/08/23 08:40:58;;;;;;;6.30;2.63;;;;;;;;;;5035421;28;20036;-77
2023/08/23 08:43:24;;;;;;;6.88;2.95;;;;;;;;;;5018932;28;20048;-76
2023/08/23 08:45:49;;;;;;;8.30;3.35;;;;;;;;;;5017786;28;20032;-76
2023/08/23 08:48:15;;;;;;;4.40;3.00;;;;;;;;;;5002053;28;20025;-76
2023/08/23 08:50:41;;;;;;;7.20;2.85;;;;;;;;;;5035921;28;20032;-76
2023/08/23 08:53:09;;;;;;;6.20;3.10;;;;;;;;;;5036119;28;20030;-76
2023/08/23 08:55:35;;;;;;;6.40;2.95;;;;;;;;;;5034910;28;20080;-76
2023/08/23 08:58:01;;;;;;;4.55;2.75;;;;;;;;;;5017636;28;20518;-76
2023/08/23 09:00:30;;;;;;;6.50;3.10;;;;;;;;;;5017884;28;20072;-76
2023/08/23 09:02:57;;;;;;;8.13;3.03;;;;;;;;;;5034443;28;20025;-76
2023/08/23 09:05:22;;;;;;;5.45;2.67;;;;;;;;;;5034170;28;20411;-76
2023/08/23 09:07:49;;;;;;;4.85;2.78;;;;;;;;;;5017067;28;20097;-76
2023/08/23 09:10:14;;;;;;;7.78;2.90;;;;;;;;;;5017025;28;20029;-76
2023/08/23 09:12:39;;;;;;;3.95;2.45;;;;;;;;;;5021697;28;20064;-76
2023/08/23 09:15:05;;;;;;;7.15;3.25;;;;;;;;;;5012202;28;20052;-76
2023/08/23 09:17:33;;;;;;;4.43;2.72;;;;;;;;;;5009348;28;20087;-76
2023/08/23 09:19:58;;;;;;;5.80;2.50;;;;;;;;;;4997944;28;20022;-76
2023/08/23 09:22:23;;;;;;;3.95;2.60;;;;;;;;;;5015526;28;20021;-76
2023/08/23 09:24:49;;;;;;;4.93;2.70;;;;;;;;;;5005313;28;20036;-76
2023/08/23 09:27:15;;;;;;;5.22;3.05;;;;;;;;;;5035055;28;20078;-76
2023/08/23 09:29:41;;;;;;;11.90;2.40;;;;;;;;;;5017418;28;20144;-76
2023/08/23 09:32:06;;;;;;;5.50;3.03;;;;;;;;;;5017705;28;20053;-76
2023/08/23 09:34:31;;;;;;;5.78;2.60;;;;;;;;;;5017143;28;20155;-76
2023/08/23 09:37:07;;;;;;;6.75;3.50;;;;;;;;;;5033053;28;20034;-76
2023/08/23 09:39:32;;;;;;;9.38;3.80;;;;;;;;;;5034286;28;20472;-77
2023/08/23 09:42:03;;;;;;;3.97;2.85;;;;;;;;;;5017557;28;20099;-76
2023/08/23 09:44:30;;;;;;;6.75;3.50;;;;;;;;;;5017776;28;20036;-76
2023/08/23 09:46:57;;;;;;;6.38;3.28;;;;;;;;;;5016421;28;20022;-76
2023/08/23 09:49:24;;;;;;;8.77;3.60;;;;;;;;;;5016506;28;20072;-76
2023/08/23 09:51:51;;;;;;;9.45;3.15;;;;;;;;;;5017224;28;20395;-76
2023/08/23 09:54:41;;;;;;;10.60;4.20;;;;;;;;;;5016599;28;20053;-76
2023/08/23 09:57:06;;;;;;;6.82;3.08;;;;;;;;;;5016849;28;20025;-76
2023/08/23 09:59:32;;;;;;;9.65;4.18;;;;;;;;;;5015858;28;20037;-76
2023/08/23 10:01:58;;;;;;;6.60;3.58;;;;;;;;;;5028971;28;20520;-76
2023/08/23 10:04:24;;;;;;;8.13;3.35;;;;;;;;;;4979988;28;20029;-76
2023/08/23 10:06:51;;;;;;;6.43;3.70;;;;;;;;;;4996850;28;20053;-76
2023/08/23 10:09:16;;;;;;;6.43;4.00;;;;;;;;;;4996976;28;20044;-76
2023/08/23 10:11:42;;;;;;;5.55;3.22;;;;;;;;;;4996974;28;20555;-76
2023/08/23 10:14:08;;;;;;;7.97;3.83;;;;;;;;;;4979514;28;20021;-76
2023/08/23 10:16:34;;;;;;;7.82;3.80;;;;;;;;;;4996906;28;20033;-76
2023/08/23 10:18:59;;;;;;;6.28;4.03;;;;;;;;;;4996551;28;20100;-76
2023/08/23 10:21:26;;;;;;;7.38;2.95;;;;;;;;;;4996384;28;20510;-76
2023/08/23 10:23:52;;;;;;;6.15;3.95;;;;;;;;;;4996359;28;20029;-76
2023/08/23 10:26:19;;;;;;;6.28;4.15;;;;;;;;;;4996630;28;20026;-76
2023/08/23 10:28:53;;;;;;;13.38;4.18;;;;;;;;;;4996905;28;20026;-76
2023/08/23 10:31:25;;;;;;;10.10;3.70;;;;;;;;;;4980109;28;20439;-76
2023/08/23 10:33:57;;;;;;;10.23;3.95;;;;;;;;;;4996185;28;20026;-76
2023/08/23 10:36:25;;;;;;;7.65;3.63;;;;;;;;;;4996172;28;20033;-76
2023/08/23 10:38:50;;;;;;;8.63;4.72;;;;;;;;;;4996418;28;20026;-76
2023/08/23 10:41:18;;;;;;;5.93;2.88;;;;;;;;;;4996125;28;20418;-76
2023/08/23 10:43:45;;;;;;;5.60;3.22;;;;;;;;;;4996376;28;20029;-76
2023/08/23 10:46:11;;;;;;;5.90;2.97;;;;;;;;;;4996160;28;20032;-76
2023/08/23 10:48:38;;;;;;;6.28;3.00;;;;;;;;;;4995763;28;20476;-75
2023/08/23 10:51:03;;;;;;;12.45;3.53;;;;;;;;;;4996618;28;20025;-76
2023/08/23 10:53:29;;;;;;;7.53;3.72;;;;;;;;;;4997554;28;20113;-76
2023/08/23 10:55:55;;;;;;;8.65;3.47;;;;;;;;;;4999626;28;20021;-76
2023/08/23 10:58:20;;;;;;;8.70;2.90;;;;;;;;;;5015204;28;20084;-76
2023/08/23 11:00:50;;;;;;;7.43;3.17;;;;;;;;;;5032937;28;20028;-76
2023/08/23 11:03:17;;;;;;;5.60;3.63;;;;;;;;;;5033427;28;20025;-75
2023/08/23 11:05:43;;;;;;;6.85;3.50;;;;;;;;;;5033222;28;20021;-76
2023/08/23 11:08:09;;;;;;;9.02;3.60;;;;;;;;;;5032106;28;20022;-76
2023/08/23 11:10:36;;;;;;;4.45;2.83;;;;;;;;;;5015510;28;20033;-77
2023/08/23 11:13:01;;;;;;;6.88;3.20;;;;;;;;;;5032360;28;20057;-76
2023/08/23 11:15:27;;;;;;;8.90;3.75;;;;;;;;;;5032850;28;20049;-76
2023/08/23 11:17:52;;;;;;;6.38;2.90;;;;;;;;;;5033422;28;20026;-76
2023/08/23 11:20:18;;;;;;;6.13;3.15;;;;;;;;;;5033738;28;20108;-76
2023/08/23 11:22:44;;;;;;;8.23;3.70;;;;;;;;;;5016320;28;20025;-76
2023/08/23 11:25:09;;;;;;;7.78;3.00;;;;;;;;;;5032034;28;20021;-76
2023/08/23 11:27:34;;;;;;;7.50;2.95;;;;;;;;;;5033662;28;20062;-76
2023/08/23 11:30:01;;;;;;;7.82;3.15;;;;;;;;;;5016147;28;20523;-76
2023/08/23 11:32:26;;;;;;;8.35;3.25;;;;;;;;;;5015269;28;20109;-76
2023/08/23 11:34:54;;;;;;;7.53;3.03;;;;;;;;;;5015640;28;20060;-76
2023/08/23 11:37:19;;;;;;;6.03;3.08;;;;;;;;;;5032394;28;20088;-76
2023/08/23 11:40:11;;;;;;;5.93;3.08;;;;;;;;;;5016519;28;20064;-76
2023/08/23 11:42:39;;;;;;;6.47;3.45;;;;;;;;;;5017426;28;20029;-76
2023/08/23 11:45:06;;;;;;;7.95;2.72;;;;;;;;;;4999459;28;20083;-77
2023/08/23 11:47:33;;;;;;;7.15;2.80;;;;;;;;;;5015640;28;20495;-76
2023/08/23 11:49:58;;;;;;;5.63;3.38;;;;;;;;;;5031974;28;20052;-76
2023/08/23 11:52:28;;;;;;;8.65;3.30;;;;;;;;;;5033401;28;20033;-77
2023/08/23 11:54:53;;;;;;;9.88;2.85;;;;;;;;;;5031762;28;20038;-76
2023/08/23 11:57:21;;;;;;;10.00;3.55;;;;;;;;;;5015282;28;20026;-76
2023/08/23 11:59:46;;;;;;;5.28;3.13;;;;;;;;;;5015208;28;20399;-76
2023/08/23 12:02:11;;;;;;;7.55;4.05;;;;;;;;;;5015685;28;20032;-76
2023/08/23 12:04:44;;;;;;;7.72;3.28;;;;;;;;;;5033549;28;20033;-76
2023/08/23 12:07:09;;;;;;;10.63;3.63;;;;;;;;;;5016429;28;20025;-76
2023/08/23 12:09:36;;;;;;;7.22;3.28;;;;;;;;;;5015145;28;20024;-76
2023/08/23 12:12:03;;;;;;;7.15;3.22;;;;;;;;;;5036893;28;20029;-76
2023/08/23 12:14:28;;;;;;;10.13;3.70;;;;;;;;;;5018964;28;20101;-76
2023/08/23 12:16:54;;;;;;;9.30;4.35;;;;;;;;;;5036962;28;20049;-77
2023/08/23 12:19:20;;;;;;;8.18;3.38;;;;;;;;;;5019092;28;20394;-77
2023/08/23 12:21:45;;;;;;;7.43;3.50;;;;;;;;;;5018942;28;20025;-77
2023/08/23 12:24:10;;;;;;;6.97;2.78;;;;;;;;;;5020135;28;20430;-77
2023/08/23 12:26:37;;;;;;;9.85;3.72;;;;;;;;;;5016978;22;20146;-77
2023/08/23 12:29:03;;;;;;;10.20;3.42;;;;;;;;;;4997510;28;20030;-77
2023/08/23 12:31:28;;;;;;;10.25;3.60;;;;;;;;;;4979651;28;20061;-77
2023/08/23 12:33:53;;;;;;;8.60;4.88;;;;;;;;;;4995641;28;20030;-76
2023/08/23 12:36:20;;;;;;;6.07;3.72;;;;;;;;;;4994993;28;20026;-76
2023/08/23 12:38:46;;;;;;;5.88;3.40;;;;;;;;;;4996704;28;20102;-76
2023/08/23 12:41:12;;;;;;;7.72;4.20;;;;;;;;;;4997145;28;20045;-76
2023/08/23 12:43:37;;;;;;;8.25;3.28;;;;;;;;;;4978002;28;20022;-76
2023/08/23 12:46:02;;;;;;;8.25;3.33;;;;;;;;;;4979680;28;20037;-77
2023/08/23 12:48:28;;;;;;;7.95;3.58;;;;;;;;;;4996936;28;20389;-76
2023/08/23 12:50:53;;;;;;;8.02;3.33;;;;;;;;;;4980008;28;20117;-76
2023/08/23 12:53:18;;;;;;;9.60;3.72;;;;;;;;;;4976182;28;20027;-77
2023/08/23 12:55:43;;;;;;;8.30;3.28;;;;;;;;;;4977325;28;20106;-76
2023/08/23 12:58:11;;;;;;;7.90;3.45;;;;;;;;;;4977976;28;20481;-76
2023/08/23 13:00:36;;;;;;;8.02;3.60;;;;;;;;;;4978079;28;20114;-76
2023/08/23 13:03:01;;;;;;;7.93;3.35;;;;;;;;;;4997360;28;20543;-77
2023/08/23 13:05:27;;;;;;;8.70;3.30;;;;;;;;;;4996779;28;20029;-77
2023/08/23 13:07:52;;;;;;;7.18;3.60;;;;;;;;;;4979315;28;20538;-76
2023/08/23 13:10:17;;;;;;;8.07;3.25;;;;;;;;;;4979312;28;20062;-76
2023/08/23 13:12:43;;;;;;;6.13;3.15;;;;;;;;;;4995935;28;20038;-77
2023/08/23 13:15:08;;;;;;;5.95;3.00;;;;;;;;;;4979368;28;20033;-76
2023/08/23 13:17:34;;;;;;;8.95;3.05;;;;;;;;;;4996225;28;20022;-76
2023/08/23 13:20:00;;;;;;;7.72;3.60;;;;;;;;;;4996544;28;20022;-76
2023/08/23 13:22:27;;;;;;;14.35;3.70;;;;;;;;;;4994646;28;20144;-78
2023/08/23 13:24:52;;;;;;;5.28;3.20;;;;;;;;;;4981915;28;20022;-77
2023/08/23 13:27:17;;;;;;;6.65;2.92;;;;;;;;;;4982240;28;20508;-77
2023/08/23 13:29:44;;;;;;;7.18;3.42;;;;;;;;;;4999795;28;20157;-78
2023/08/23 13:32:10;;;;;;;7.22;3.10;;;;;;;;;;4999818;28;20022;-77
2023/08/23 13:34:35;;;;;;;6.57;3.45;;;;;;;;;;4982718;28;20032;-77
2023/08/23 13:37:01;;;;;;;5.93;3.28;;;;;;;;;;4998318;28;20477;-78
2023/08/23 13:39:26;;;;;;;7.35;3.33;;;;;;;;;;4982899;28;20073;-78
2023/08/23 13:41:51;;;;;;;5.78;3.22;;;;;;;;;;5003130;28;20035;-78
2023/08/23 13:44:17;;;;;;;7.22;3.72;;;;;;;;;;4995456;28;20030;-77
2023/08/23 13:46:42;;;;;;;8.40;3.38;;;;;;;;;;4981051;28;20460;-77
2023/08/23 13:49:10;;;;;;;9.05;3.42;;;;;;;;;;4980685;28;20392;-77
2023/08/23 13:51:36;;;;;;;7.07;3.22;;;;;;;;;;4997978;28;20109;-77
2023/08/23 13:54:01;;;;;;;5.75;3.25;;;;;;;;;;4981553;28;20057;-77
2023/08/23 13:56:26;;;;;;;8.70;3.88;;;;;;;;;;4979805;28;20026;-77
2023/08/23 13:58:52;;;;;;;6.35;2.88;;;;;;;;;;4979353;28;20151;-78
2023/08/23 14:01:17;;;;;;;8.95;3.25;;;;;;;;;;4978904;28;20571;-78
2023/08/23 14:03:42;;;;;;;7.85;3.25;;;;;;;;;;4997741;28;20030;-77
2023/08/23 14:06:08;;;;;;;12.57;4.13;;;;;;;;;;4979509;28;20041;-77
2023/08/23 14:08:33;;;;;;;11.00;3.50;;;;;;;;;;4997098;28;20022;-78
2023/08/23 14:10:58;;;;;;;9.68;4.38;;;;;;;;;;4979901;28;20037;-77
2023/08/23 14:13:24;;;;;;;6.78;3.35;;;;;;;;;;4978315;28;20034;-77
2023/08/23 14:15:51;;;;;;;7.65;3.28;;;;;;;;;;4963635;28;20037;-77
2023/08/23 14:18:17;;;;;;;11.98;3.67;;;;;;;;;;4979937;28;20041;-77
2023/08/23 14:20:42;;;;;;;5.18;3.17;;;;;;;;;;4979930;28;20501;-77
2023/08/23 14:23:07;;;;;;;10.75;4.50;;;;;;;;;;4979550;28;20023;-77
2023/08/23 14:25:33;;;;;;;7.68;3.33;;;;;;;;;;4978793;28;20034;-77
2023/08/23 14:27:58;;;;;;;12.10;3.78;;;;;;;;;;4978958;28;20026;-77
2023/08/23 14:30:23;;;;;;;10.10;3.75;;;;;;;;;;4978830;28;20550;-77